Flin Flon, Canada
Current Conditions -  °F | °C
As of 8:00 PM on Wednesday 26 Nov 2014 (Local Time) from CYQD Reporting Station
Clear Clear  
Wind Chill: -27°   Ceiling: Unl
Heat Index: -15°   Visibility: 15mi
Dew Point: -20°   Wind: 5mph
Humidity: 77%   Direction: 190°S
Pressure: 30.44"   Gusts: NA
Location:  54.77°N, 101.88°W
Report Text: CYQD 270200Z 19004KT 15SM SKC M26/M29 A3044 RMK FROIN SLP348
Loading
Personal Weather Stations






























Interactive Weather Map New forecast layout! Learn more

10-Day Weather Forecast

Advertisements
Track Severe Weather on mobile